createdAt,value
2018-11-20T00:00:01.997Z,11.10
2018-11-20T00:03:09.110Z,9.37
2018-11-20T00:06:10.008Z,6.27
2018-11-20T00:08:53.545Z,7.37
2018-11-20T00:11:34.436Z,8.87
2018-11-20T00:14:21.897Z,6.53
2018-11-20T00:17:04.407Z,9.20
2018-11-20T00:19:56.131Z,9.80
2018-11-20T00:22:51.130Z,8.93
2018-11-20T00:25:38.983Z,8.47
2018-11-20T00:28:33.124Z,8.07
2018-11-20T00:31:13.629Z,9.43
2018-11-20T00:34:02.788Z,8.50
2018-11-20T00:36:53.385Z,8.67
2018-11-20T00:39:39.806Z,9.60
2018-11-20T00:42:34.884Z,9.70
2018-11-20T00:45:33.089Z,8.70
2018-11-20T00:48:22.300Z,9.73
2018-11-20T00:51:10.787Z,7.57
2018-11-20T00:54:09.160Z,10.43
2018-11-20T00:57:04.328Z,11.10
2018-11-20T00:59:54.275Z,7.33
2018-11-20T01:02:43.478Z,10.77
2018-11-20T01:05:44.347Z,8.60
2018-11-20T01:08:36.269Z,10.83
2018-11-20T01:11:28.158Z,11.37
2018-11-20T01:14:29.041Z,8.30
2018-11-20T01:17:33.119Z,10.57
2018-11-20T01:20:19.858Z,6.87
2018-11-20T01:23:08.123Z,7.00
2018-11-20T01:26:00.147Z,11.33
2018-11-20T01:28:51.839Z,9.30
2018-11-20T01:31:37.702Z,8.67
2018-11-20T01:34:45.041Z,9.37
2018-11-20T01:37:37.008Z,6.40
2018-11-20T01:40:38.405Z,9.93
2018-11-20T01:43:27.493Z,7.43
2018-11-20T01:46:16.810Z,6.80
2018-11-20T01:49:06.025Z,11.20
2018-11-20T01:51:53.935Z,11.40
2018-11-20T01:54:41.961Z,9.70
2018-11-20T01:57:33.932Z,9.10
2018-11-20T02:00:21.759Z,11.97
2018-11-20T02:03:18.755Z,11.63
2018-11-20T02:06:11.190Z,11.07
2018-11-20T02:09:00.247Z,10.03
2018-11-20T02:11:43.792Z,10.23
2018-11-20T02:14:47.614Z,10.43
2018-11-20T02:17:54.955Z,12.77
2018-11-20T02:20:35.556Z,10.23
2018-11-20T02:23:32.315Z,11.50
2018-11-20T02:26:35.272Z,13.10
2018-11-20T02:29:26.305Z,12.33
2018-11-20T02:32:13.903Z,13.07
2018-11-20T02:35:01.357Z,9.33
2018-11-20T02:37:53.105Z,11.33
2018-11-20T02:40:46.528Z,12.63
2018-11-20T02:43:44.603Z,10.13
2018-11-20T02:46:51.857Z,8.07
2018-11-20T02:49:41.043Z,10.07
2018-11-20T02:52:19.737Z,11.17
2018-11-20T02:55:20.636Z,14.00
2018-11-20T02:58:15.480Z,8.10
2018-11-20T03:01:15.157Z,10.80
2018-11-20T03:04:19.131Z,9.67
2018-11-20T03:07:11.459Z,10.47
2018-11-20T03:10:06.490Z,15.47
2018-11-20T03:12:58.483Z,10.57
2018-11-20T03:15:53.485Z,14.03
2018-11-20T03:18:41.099Z,11.83
2018-11-20T03:21:30.320Z,12.13
2018-11-20T03:24:12.415Z,13.90
2018-11-20T03:27:04.509Z,12.73
2018-11-20T03:31:01.458Z,14.83
2018-11-20T03:34:06.083Z,14.87
2018-11-20T03:37:06.779Z,9.90
2018-11-20T03:39:54.274Z,14.40
2018-11-20T03:42:58.623Z,15.43
2018-11-20T03:45:47.927Z,10.97
2018-11-20T03:48:35.612Z,13.63
2018-11-20T03:51:25.820Z,12.07
2018-11-20T03:54:32.924Z,12.30
2018-11-20T03:57:28.121Z,12.17
2018-11-20T04:00:20.179Z,9.77
2018-11-20T04:03:12.128Z,15.10
2018-11-20T04:06:04.122Z,13.13
2018-11-20T04:08:58.940Z,13.30
2018-11-20T04:11:56.885Z,13.83
2018-11-20T04:14:44.726Z,11.63
2018-11-20T04:17:33.841Z,10.57
2018-11-20T04:20:28.976Z,10.07
2018-11-20T04:23:16.630Z,11.47
2018-11-20T04:26:04.285Z,12.10
2018-11-20T04:29:05.334Z,14.03
2018-11-20T04:32:23.753Z,14.97
2018-11-20T04:35:13.672Z,14.87
2018-11-20T04:38:02.680Z,8.43
2018-11-20T04:40:48.889Z,12.67
2018-11-20T04:43:40.574Z,8.37
2018-11-20T04:46:36.222Z,8.07
2018-11-20T04:49:43.859Z,10.70
2018-11-20T04:52:42.570Z,15.07
2018-11-20T04:55:43.186Z,13.87
2018-11-20T04:58:24.009Z,13.53
2018-11-20T05:01:12.300Z,15.50
2018-11-20T05:04:13.269Z,9.93
2018-11-20T05:07:01.010Z,10.63
2018-11-20T05:09:55.924Z,16.07
2018-11-20T05:12:45.100Z,8.80
2018-11-20T05:15:32.812Z,13.03
2018-11-20T05:18:20.449Z,9.57
2018-11-20T05:21:12.217Z,11.83
2018-11-20T05:24:00.119Z,10.57
2018-11-20T05:26:57.951Z,9.27
2018-11-20T05:29:50.038Z,8.50
2018-11-20T05:32:39.136Z,8.50
2018-11-20T05:35:33.778Z,8.17
2018-11-20T05:38:22.936Z,11.73
2018-11-20T05:41:13.077Z,8.93
2018-11-20T05:43:59.972Z,12.67
2018-11-20T05:46:48.891Z,9.37
2018-11-20T05:49:43.731Z,13.23
2018-11-20T05:52:37.407Z,8.90
2018-11-20T05:55:28.160Z,11.20
2018-11-20T05:58:07.051Z,13.87
2018-11-20T06:00:54.694Z,18.47
2018-11-20T06:03:43.944Z,11.07
2018-11-20T06:06:48.501Z,11.63
2018-11-20T06:09:43.570Z,8.87
2018-11-20T06:12:31.445Z,11.77
2018-11-20T06:15:32.454Z,10.30
2018-11-20T06:18:24.452Z,11.23
2018-11-20T06:21:19.378Z,15.53
2018-11-20T06:24:06.701Z,11.13
2018-11-20T06:26:54.339Z,12.87
2018-11-20T06:29:45.976Z,14.83
2018-11-20T06:32:53.319Z,11.77
2018-11-20T06:35:48.235Z,16.43
2018-11-20T06:38:35.510Z,8.17
2018-11-20T06:41:39.490Z,15.27
2018-11-20T06:44:28.433Z,11.33
2018-11-20T06:47:18.208Z,14.13
2018-11-20T06:50:05.837Z,13.00
2018-11-20T06:53:07.067Z,9.73
2018-11-20T06:56:04.611Z,11.43
2018-11-20T06:58:48.700Z,12.03
2018-11-20T07:01:55.883Z,9.87
2018-11-20T07:04:50.722Z,10.47
2018-11-20T07:07:38.653Z,13.10
2018-11-20T07:10:26.406Z,14.27
2018-11-20T07:13:26.168Z,12.97
2018-11-20T07:16:41.942Z,16.10
2018-11-20T07:19:46.310Z,15.57
2018-11-20T07:22:40.025Z,11.83
2018-11-20T07:25:27.928Z,15.80
2018-11-20T07:28:16.724Z,13.23
2018-11-20T07:31:06.162Z,14.13
2018-11-20T07:33:55.423Z,12.97
2018-11-20T07:36:59.904Z,13.70
2018-11-20T07:39:39.701Z,15.27
2018-11-20T07:42:27.432Z,13.80
2018-11-20T07:45:14.976Z,14.70
2018-11-20T07:48:10.490Z,9.93
2018-11-20T07:50:58.252Z,16.97
2018-11-20T07:53:46.557Z,11.10
2018-11-20T07:56:34.378Z,15.27
2018-11-20T07:59:22.554Z,13.17
2018-11-20T08:02:27.124Z,11.73
2018-11-20T08:05:14.549Z,12.77
2018-11-20T08:08:09.104Z,17.67
2018-11-20T08:11:04.746Z,9.83
2018-11-20T08:13:57.036Z,11.57
2018-11-20T08:16:46.593Z,13.73
2018-11-20T08:19:45.268Z,18.63
2018-11-20T08:22:43.269Z,10.10
2018-11-20T08:25:50.691Z,9.93
2018-11-20T08:28:38.928Z,12.97
2018-11-20T08:31:27.099Z,15.50
2018-11-20T08:34:19.187Z,12.17
2018-11-20T08:37:08.985Z,11.07
2018-11-20T08:40:01.538Z,14.10
2018-11-20T08:42:49.375Z,14.77
2018-11-20T08:45:46.677Z,13.97
2018-11-20T08:48:44.978Z,10.33
2018-11-20T08:51:46.543Z,14.10
2018-11-20T08:54:40.085Z,17.70
2018-11-20T08:57:26.421Z,11.40
2018-11-20T09:00:08.150Z,11.10
2018-11-20T09:02:57.827Z,14.03
2018-11-20T09:05:52.964Z,11.13
2018-11-20T09:08:47.708Z,14.03
2018-11-20T09:11:42.815Z,15.53
2018-11-20T09:14:30.798Z,12.67
2018-11-20T09:17:32.131Z,11.10
2018-11-20T09:20:19.884Z,9.73
2018-11-20T09:23:21.246Z,14.80
2018-11-20T09:26:03.219Z,9.87
2018-11-20T09:28:55.519Z,14.10
2018-11-20T09:31:43.717Z,8.10
2018-11-20T09:34:39.153Z,10.27
2018-11-20T09:37:31.455Z,9.83
2018-11-20T09:40:57.982Z,9.10
2018-11-20T09:44:18.365Z,10.20
2018-11-20T09:47:06.741Z,11.03
2018-11-20T09:50:01.899Z,9.93
2018-11-20T09:53:04.303Z,11.03
2018-11-20T09:56:03.041Z,11.23
2018-11-20T09:58:54.925Z,7.53
2018-11-20T10:01:40.443Z,11.57
2018-11-20T10:04:31.241Z,11.80
2018-11-20T10:07:29.126Z,13.10
2018-11-20T10:10:36.881Z,9.53
2018-11-20T10:13:38.223Z,11.90
2018-11-20T10:16:32.911Z,12.10
2018-11-20T10:19:40.286Z,9.30
2018-11-20T10:22:33.595Z,8.80
2018-11-20T10:25:29.292Z,11.13
2018-11-20T10:28:16.909Z,8.33
2018-11-20T10:31:05.206Z,12.17
2018-11-20T10:34:02.502Z,10.73
2018-11-20T10:37:00.911Z,10.73
2018-11-20T10:39:55.957Z,10.63
2018-11-20T10:42:57.832Z,11.30
2018-11-20T10:45:47.108Z,12.63
2018-11-20T10:48:34.957Z,15.63
2018-11-20T10:51:20.284Z,9.63
2018-11-20T10:54:08.662Z,8.73
2018-11-20T10:56:59.120Z,9.10
2018-11-20T10:59:51.561Z,12.23
2018-11-20T11:02:39.485Z,9.90
2018-11-20T11:05:34.218Z,12.10
2018-11-20T11:08:22.330Z,11.27
2018-11-20T11:11:11.653Z,7.57
2018-11-20T11:14:07.211Z,11.50
2018-11-20T11:17:05.358Z,9.77
2018-11-20T11:20:02.879Z,8.23
2018-11-20T11:22:53.142Z,10.53
2018-11-20T11:25:45.415Z,11.07
2018-11-20T11:28:40.537Z,11.00
2018-11-20T11:31:28.294Z,11.83
2018-11-20T11:34:16.766Z,14.10
2018-11-20T11:37:00.855Z,11.13
2018-11-20T11:39:50.366Z,9.70
2018-11-20T11:42:45.353Z,10.87
2018-11-20T11:45:39.483Z,11.20
2018-11-20T11:48:29.439Z,10.90
2018-11-20T11:51:15.522Z,10.10
2018-11-20T11:53:59.620Z,8.07
2018-11-20T11:56:58.273Z,12.03
2018-11-20T11:59:46.617Z,12.73
2018-11-20T12:05:40.957Z,13.83
2018-11-20T12:08:39.465Z,9.70
2018-11-20T12:11:27.301Z,12.53
2018-11-20T12:14:19.109Z,12.40
2018-11-20T12:17:28.997Z,13.30
2018-11-20T12:20:16.879Z,12.47
2018-11-20T12:23:15.462Z,15.00
2018-11-20T12:26:13.838Z,9.73
2018-11-20T12:29:17.113Z,9.07
2018-11-20T12:32:06.395Z,11.20
2018-11-20T12:35:06.032Z,13.47
2018-11-20T12:37:49.024Z,10.20
2018-11-20T12:40:38.636Z,9.77
2018-11-20T12:43:26.619Z,11.37
2018-11-20T12:46:15.942Z,12.13
2018-11-20T12:49:07.912Z,13.27
2018-11-20T12:51:56.163Z,11.27
2018-11-20T12:54:52.449Z,8.00
2018-11-20T12:58:38.257Z,9.83
2018-11-20T13:01:44.969Z,9.70
2018-11-20T13:04:42.126Z,13.37
2018-11-20T13:07:24.663Z,13.20
2018-11-20T13:10:11.503Z,11.70
2018-11-20T13:13:05.773Z,11.97
2018-11-20T13:15:53.469Z,9.27
2018-11-20T13:18:41.108Z,13.87
2018-11-20T13:21:28.459Z,10.30
2018-11-20T13:24:09.745Z,9.53
2018-11-20T13:27:15.707Z,11.33
2018-11-20T13:30:04.066Z,7.27
2018-11-20T13:32:52.379Z,8.57
2018-11-20T13:35:39.481Z,13.13
2018-11-20T13:38:19.632Z,14.77
2018-11-20T13:41:44.161Z,9.00
2018-11-20T13:44:35.429Z,10.80
2018-11-20T13:47:33.389Z,14.73
2018-11-20T13:50:21.736Z,9.47
2018-11-20T13:53:13.090Z,8.73
2018-11-20T13:56:01.429Z,10.57
2018-11-20T13:58:55.231Z,9.57
2018-11-20T14:01:46.487Z,10.33
2018-11-20T14:04:40.830Z,12.30
2018-11-20T14:07:28.019Z,14.63
2018-11-20T14:10:28.477Z,14.03
2018-11-20T14:13:19.817Z,10.57
2018-11-20T14:16:06.901Z,10.37
2018-11-20T14:18:58.603Z,10.20
2018-11-20T14:21:45.875Z,16.07
2018-11-20T14:24:49.900Z,10.23
2018-11-20T14:27:49.838Z,16.63
2018-11-20T14:30:45.586Z,11.30
2018-11-20T14:33:39.743Z,16.23
2018-11-20T14:36:26.754Z,12.53
2018-11-20T14:39:18.501Z,9.87
2018-11-20T14:42:05.938Z,13.67
2018-11-20T14:45:00.292Z,12.13
2018-11-20T14:47:49.130Z,12.37
2018-11-20T14:50:46.518Z,12.10
2018-11-20T14:53:41.861Z,11.30
2018-11-20T14:56:42.166Z,12.97
2018-11-20T14:59:36.860Z,9.90
2018-11-20T15:02:43.720Z,13.83
2018-11-20T15:05:30.432Z,11.03
2018-11-20T15:08:17.310Z,10.47
2018-11-20T15:11:08.338Z,19.17
2018-11-20T15:14:02.798Z,15.43
2018-11-20T15:16:49.786Z,20.50
2018-11-20T15:19:37.931Z,18.40
2018-11-20T15:22:32.659Z,13.87
2018-11-20T15:25:21.527Z,10.57
2018-11-20T15:28:03.777Z,16.90
2018-11-20T15:30:50.427Z,13.93
2018-11-20T15:33:26.946Z,12.70
2018-11-20T15:36:15.154Z,11.83
2018-11-20T15:39:12.022Z,14.13
2018-11-20T15:41:58.885Z,15.37
2018-11-20T15:44:47.134Z,17.10
2018-11-20T15:47:38.088Z,12.97
2018-11-20T15:50:31.094Z,12.93
2018-11-20T15:53:17.994Z,12.40
2018-11-20T15:56:15.310Z,13.70
2018-11-20T15:59:03.572Z,18.50
2018-11-20T16:01:57.563Z,13.10
2018-11-20T16:04:52.012Z,11.80
2018-11-20T16:07:38.921Z,13.57
2018-11-20T16:10:26.092Z,13.73
2018-11-20T16:13:20.296Z,17.23
2018-11-20T16:16:17.506Z,18.33
2018-11-20T16:19:05.751Z,13.93
2018-11-20T16:21:48.200Z,13.97
2018-11-20T16:24:51.604Z,11.30
2018-11-20T16:27:43.830Z,16.07
2018-11-20T16:30:30.858Z,11.77
2018-11-20T16:33:19.050Z,10.90
2018-11-20T16:36:05.818Z,13.40
2018-11-20T16:38:52.814Z,12.27
2018-11-20T16:41:42.166Z,13.93
2018-11-20T16:44:27.064Z,16.40
2018-11-20T16:47:13.923Z,18.43
2018-11-20T16:50:07.782Z,16.37
2018-11-20T16:53:11.119Z,12.50
2018-11-20T16:56:08.171Z,14.97
2018-11-20T16:59:04.184Z,19.10
2018-11-20T17:01:51.422Z,15.50
2018-11-20T17:04:54.669Z,20.13
2018-11-20T17:07:56.197Z,19.47
2018-11-20T17:10:39.734Z,17.83
2018-11-20T17:13:36.984Z,19.07
2018-11-20T17:16:40.334Z,16.97
2018-11-20T17:19:34.151Z,15.37
2018-11-20T17:22:25.515Z,13.10
2018-11-20T17:25:05.764Z,14.40
2018-11-20T17:27:57.644Z,14.10
2018-11-20T17:30:44.368Z,22.90
2018-11-20T17:33:51.124Z,21.20
2018-11-20T17:36:47.977Z,20.53
2018-11-20T17:39:45.482Z,23.33
2018-11-20T17:42:43.538Z,14.73
2018-11-20T17:45:34.310Z,12.50
2018-11-20T17:48:25.168Z,13.50
2018-11-20T17:51:14.156Z,12.27
2018-11-20T17:54:17.533Z,16.87
2018-11-20T17:57:11.663Z,20.30
2018-11-20T17:59:59.911Z,20.33
2018-11-20T18:02:54.626Z,17.60
2018-11-20T18:05:40.463Z,13.60
2018-11-20T18:08:31.413Z,18.80
2018-11-20T18:11:26.459Z,15.67
2018-11-20T18:14:17.531Z,11.80
2018-11-20T18:17:08.580Z,20.70
2018-11-20T18:19:52.562Z,13.00
2018-11-20T18:22:47.019Z,17.43
2018-11-20T18:25:53.615Z,29.70
2018-11-20T18:28:40.339Z,21.53
2018-11-20T18:31:27.213Z,25.47
2018-11-20T18:34:15.419Z,15.37
2018-11-20T18:37:02.078Z,17.20
2018-11-20T18:40:08.531Z,22.40
2018-11-20T18:42:54.599Z,16.47
2018-11-20T18:45:45.853Z,17.27
2018-11-20T18:48:32.941Z,17.77
2018-11-20T18:51:29.944Z,14.07
2018-11-20T18:54:18.689Z,18.93
2018-11-20T18:57:05.245Z,18.70
2018-11-20T18:59:52.190Z,17.00
2018-11-20T19:02:49.491Z,13.80
2018-11-20T19:05:37.752Z,14.13
2018-11-20T19:08:28.511Z,21.13
2018-11-20T19:11:31.689Z,18.57
2018-11-20T19:14:35.067Z,20.90
2018-11-20T19:17:38.136Z,21.07
2018-11-20T19:20:26.379Z,17.13
2018-11-20T19:23:13.528Z,15.37
2018-11-20T19:25:52.387Z,17.17
2018-11-20T19:28:46.603Z,24.43
2018-11-20T19:31:43.736Z,18.87
2018-11-20T19:34:31.128Z,21.37
2018-11-20T19:37:25.421Z,18.50
2018-11-20T19:40:19.870Z,19.10
2018-11-20T19:43:11.406Z,23.17
2018-11-20T19:45:59.737Z,19.50
2018-11-20T19:48:50.872Z,20.63
2018-11-20T19:52:00.838Z,13.43
2018-11-20T19:54:42.093Z,19.73
2018-11-20T19:57:45.597Z,24.73
2018-11-20T20:00:26.477Z,23.07
2018-11-20T20:03:20.767Z,21.97
2018-11-20T20:06:12.047Z,16.70
2018-11-20T20:09:02.945Z,19.00
2018-11-20T20:11:49.612Z,24.00
2018-11-20T20:14:40.400Z,17.50
2018-11-20T20:17:27.221Z,19.77
2018-11-20T20:20:17.859Z,17.03
2018-11-20T20:23:04.617Z,22.70
2018-11-20T20:25:52.858Z,14.40
2018-11-20T20:28:43.967Z,15.77
2018-11-20T20:31:44.426Z,19.90
2018-11-20T20:34:35.595Z,21.77
2018-11-20T20:37:26.464Z,23.10
2018-11-20T20:40:17.627Z,18.23
2018-11-20T20:43:20.858Z,19.80
2018-11-20T20:46:09.065Z,24.93
2018-11-20T20:48:59.945Z,22.43
2018-11-20T20:51:46.778Z,22.00
2018-11-20T20:54:53.271Z,17.30
2018-11-20T20:57:44.208Z,19.67
2018-11-20T21:00:35.301Z,18.80
2018-11-20T21:03:27.498Z,27.87
2018-11-20T21:06:15.865Z,26.20
2018-11-20T21:09:02.834Z,20.07
2018-11-20T21:11:40.437Z,15.53
2018-11-20T21:14:34.420Z,15.77
2018-11-20T21:17:21.220Z,28.63
2018-11-20T21:20:08.384Z,24.37
2018-11-20T21:22:55.274Z,15.40
2018-11-20T21:25:43.584Z,20.63
2018-11-20T21:28:31.856Z,18.80
2018-11-20T21:31:19.080Z,24.73
2018-11-20T21:34:05.848Z,20.27
2018-11-20T21:36:56.981Z,21.57
2018-11-20T21:39:41.251Z,23.67
2018-11-20T21:42:32.026Z,25.67
2018-11-20T21:45:18.743Z,16.10
2018-11-20T21:48:19.039Z,18.47
2018-11-20T21:51:00.934Z,18.53
2018-11-20T21:53:47.575Z,25.23
2018-11-20T21:56:34.737Z,27.03
2018-11-20T21:59:24.137Z,27.27
2018-11-20T22:02:11.302Z,26.13
2018-11-20T22:04:58.347Z,25.47
2018-11-20T22:07:45.263Z,22.57
2018-11-20T22:10:31.939Z,17.90
2018-11-20T22:13:18.602Z,23.90
2018-11-20T22:16:06.260Z,28.63
2018-11-20T22:18:56.149Z,27.30
2018-11-20T22:21:40.023Z,20.63
2018-11-20T22:24:26.983Z,19.00
2018-11-20T22:27:13.907Z,24.07
2018-11-20T22:29:57.880Z,28.17
2018-11-20T22:33:01.106Z,23.43
2018-11-20T22:35:52.089Z,20.57
2018-11-20T22:38:52.277Z,25.67
2018-11-20T22:41:43.385Z,26.50
2018-11-20T22:44:31.782Z,24.30
2018-11-20T22:47:29.234Z,18.13
2018-11-20T22:50:15.984Z,28.47
2018-11-20T22:53:02.904Z,17.17
2018-11-20T22:55:50.894Z,21.03
2018-11-20T22:58:51.132Z,22.67
2018-11-20T23:01:39.537Z,28.57
2018-11-20T23:04:33.614Z,16.30
2018-11-20T23:07:36.809Z,20.23
2018-11-20T23:10:06.021Z,28.03
2018-11-20T23:12:35.218Z,21.83
2018-11-20T23:15:06.136Z,24.60
2018-11-20T23:17:35.298Z,27.90
2018-11-20T23:20:04.916Z,23.20
2018-11-20T23:22:34.186Z,23.50
2018-11-20T23:25:03.652Z,25.23
2018-11-20T23:27:32.785Z,21.60
2018-11-20T23:30:02.144Z,25.47
2018-11-20T23:32:31.344Z,22.73
2018-11-20T23:35:00.482Z,25.23
2018-11-20T23:37:29.882Z,16.73
2018-11-20T23:39:58.912Z,25.10
2018-11-20T23:42:28.228Z,23.53
2018-11-20T23:44:57.390Z,26.33
2018-11-20T23:47:26.628Z,13.90
2018-11-20T23:49:55.814Z,26.17
2018-11-20T23:52:24.944Z,20.97
2018-11-20T23:54:53.968Z,19.47
2018-11-20T23:57:23.136Z,18.67
2018-11-20T23:59:52.342Z,16.83
